Wind from 285 at 0 knots gusting 2

Air temperature 16.1° C
Dewpoint 13.9° C

Last reported at 2014-Apr-17 11:49 UTC.
Time now 2014-Apr-17 12:37 UTC

Location: S 33°01' E 137°32'.
View on Google Maps.

See reports from other nearby stations

Tides Stations Pressure Air Temp Water Temp Dewpoint Dewpoint depression Visibility Wind Speed Wind Dir Waves Ship positions

  
sailing weather and tide predictions

DW5978 Whyalla SA AU weather

date/time (UTC)wind fromknots sea level pressurealtimeterstation pressurevisibilityair tempwater tempwave heightnotes
2014-Apr-17 11:49 285 0 gusting 2 16.1
2014-Apr-17 11:34 283 0 gusting 1 16.1
2014-Apr-17 11:19 283 0 gusting 1 16.1
2014-Apr-17 11:04 281 0 gusting 2 16.1
2014-Apr-17 10:49 282 0 gusting 1 16.1
2014-Apr-17 10:34 283 0 gusting 1 17.2
2014-Apr-17 10:20 282 1 gusting 2 17.8
2014-Apr-17 10:04 223 1 gusting 5 18.9
2014-Apr-17 09:49 243 3 gusting 5 19.4
2014-Apr-17 09:34 182 1 gusting 2 20.6
2014-Apr-17 09:19 044 3 gusting 6 20.6
2014-Apr-17 09:04 099 1 gusting 4 20.6
2014-Apr-17 08:49 071 2 gusting 3 21.1
2014-Apr-17 08:34 098 1 gusting 3 21.7
2014-Apr-17 08:19 081 0 gusting 3 22.2
2014-Apr-17 08:04 063 2 gusting 5 23.3
2014-Apr-17 07:49 095 4 gusting 6 23.9
2014-Apr-17 07:34 072 3 gusting 6 23.9
2014-Apr-17 07:19 095 5 gusting 7 24.4
2014-Apr-17 07:04 056 5 gusting 7 24.4
2014-Apr-17 06:49 114 4 gusting 6 24.4
2014-Apr-17 06:34 103 3 gusting 7 25.0
2014-Apr-17 06:19 111 4 gusting 8 24.4
2014-Apr-17 06:04 070 3 gusting 6 24.4
2014-Apr-17 05:49 112 5 gusting 7 24.4
2014-Apr-17 05:34 114 3 gusting 6 24.4
2014-Apr-17 05:19 111 3 gusting 6 24.4
2014-Apr-17 05:04 103 3 gusting 6 24.4
2014-Apr-17 04:49 096 3 gusting 8 24.4
2014-Apr-17 04:34 101 5 gusting 7 24.4
2014-Apr-17 04:19 048 2 gusting 6 24.4
2014-Apr-17 04:04 082 2 gusting 4 25.0
2014-Apr-17 03:49 217 0 gusting 3 25.6
2014-Apr-17 03:34 271 25.6
2014-Apr-17 03:19 217 25.0
2014-Apr-17 03:04 275 1 gusting 5 25.0
2014-Apr-17 02:49 249 0 gusting 6 24.4
2014-Apr-17 02:33 304 1 gusting 8 24.4
2014-Apr-17 02:18 296 1 gusting 6 23.9
2014-Apr-17 02:03 285 1 gusting 4 23.9
2014-Apr-17 01:48 050 2 gusting 4 23.3
2014-Apr-17 01:33 024 0 gusting 2 23.3
2014-Apr-17 01:18 056 22.8
2014-Apr-17 01:03 323 0 gusting 3 21.1
2014-Apr-17 00:48 125 0 gusting 2 20.6
2014-Apr-17 00:33 134 20.0
2014-Apr-17 00:18 169 1 gusting 3 19.4
2014-Apr-17 00:03 156 0 gusting 3 18.9
2014-Apr-16 23:48 177 18.3
2014-Apr-16 23:33 281 17.8
2014-Apr-16 23:18 281 17.2
2014-Apr-16 23:03 281 16.1
2014-Apr-16 22:48 293 0 gusting 2 15.6
2014-Apr-16 22:33 291 0 gusting 2 14.4
2014-Apr-16 22:18 288 0 gusting 2 13.9
2014-Apr-16 22:03 284 0 gusting 2 12.8
2014-Apr-16 21:48 280 11.7
2014-Apr-16 21:33 280 11.1
2014-Apr-16 21:17 280 11.1
2014-Apr-16 21:02 280 11.1
2014-Apr-16 20:47 280 11.1
2014-Apr-16 20:32 280 11.1
2014-Apr-16 20:17 280 11.1
2014-Apr-16 20:02 281 0 gusting 2 11.1
2014-Apr-16 19:47 278 10.6
2014-Apr-16 19:32 280 11.1
2014-Apr-16 19:17 280 12.2
2014-Apr-16 19:02 280 12.2
2014-Apr-16 18:47 279 12.2
2014-Apr-16 18:32 280 0 gusting 1 12.2
2014-Apr-16 18:17 278 12.2
2014-Apr-16 18:02 278 12.8
2014-Apr-16 17:47 278 12.8
2014-Apr-16 17:32 278 0 gusting 1 12.2
2014-Apr-16 17:02 278 12.2
2014-Apr-16 16:47 278 12.2
2014-Apr-16 16:32 278 12.8
2014-Apr-16 16:17 278 12.8
2014-Apr-16 16:02 278 13.3
2014-Apr-16 15:47 278 12.8
2014-Apr-16 15:32 278 13.3
2014-Apr-16 15:17 278 13.3
2014-Apr-16 15:02 278 13.9
2014-Apr-16 14:47 278 14.4
2014-Apr-16 14:32 278 14.4
2014-Apr-16 14:17 278 14.4
2014-Apr-16 14:02 278 14.4
2014-Apr-16 13:32 278 14.4
2014-Apr-16 13:17 280 13.9
2014-Apr-16 13:02 278 14.4
2014-Apr-16 12:47 278 14.4
2014-Apr-16 12:32 278 0 gusting 0 15.0
2014-Apr-16 12:17 278 14.4
2014-Apr-16 12:02 278 14.4
2014-Apr-16 11:47 278 15.0
2014-Apr-16 11:32 278 15.6
2014-Apr-16 11:17 278 15.6
2014-Apr-16 11:02 280 15.6
2014-Apr-16 10:47 170 16.7
2014-Apr-16 10:32 243 0 gusting 1 16.7
2014-Apr-16 10:16 103 17.2
2014-Apr-16 10:01 103 17.8
2014-Apr-16 09:46 103 17.8
2014-Apr-16 09:31 142 0 gusting 1 18.9
2014-Apr-16 09:16 143 19.4
2014-Apr-16 09:01 109 0 gusting 3 19.4
2014-Apr-16 08:46 078 1 gusting 3 20.0
2014-Apr-16 08:31 072 2 gusting 5 20.6
2014-Apr-16 08:16 105 5 gusting 8 21.1
2014-Apr-16 07:46 148 5 gusting 9 22.2
2014-Apr-16 07:31 106 3 gusting 6 22.8
2014-Apr-16 07:17 084 3 gusting 8 23.3
2014-Apr-16 07:01 037 6 gusting 8 23.9
2014-Apr-16 06:46 080 6 gusting 9 23.9
2014-Apr-16 06:31 064 6 gusting 9 23.9
2014-Apr-16 06:16 058 6 gusting 9 23.9
2014-Apr-16 06:01 095 5 gusting 9 23.9
2014-Apr-16 05:46 079 4 gusting 7 24.4
2014-Apr-16 05:31 049 1 gusting 6 24.4
2014-Apr-16 05:16 240 1 gusting 6 25.0
2014-Apr-16 05:01 266 3 gusting 8 25.0
2014-Apr-16 04:46 277 5 gusting 9 25.0
2014-Apr-16 04:31 297 2 gusting 7 25.0
2014-Apr-16 04:16 260 1 gusting 6 24.4
2014-Apr-16 04:01 221 5 gusting 7 24.4
2014-Apr-16 03:46 293 3 gusting 6 24.4
2014-Apr-16 03:31 225 1 gusting 8 23.9
2014-Apr-16 03:16 288 5 gusting 9 23.9
2014-Apr-16 03:01 277 2 gusting 9 23.9
2014-Apr-16 02:46 235 5 gusting 7 23.3
2014-Apr-16 02:31 308 2 gusting 6 22.8
2014-Apr-16 02:16 255 1 gusting 6 22.8
2014-Apr-16 01:46 296 4 gusting 8 22.2
2014-Apr-16 01:31 285 6 gusting 9 21.7
2014-Apr-16 01:16 272 5 gusting 8 21.1
2014-Apr-16 01:00 280 5 gusting 8 20.6
2014-Apr-16 00:45 330 3 gusting 6 20.6
2014-Apr-16 00:30 302 3 gusting 6 19.4
2014-Apr-16 00:15 326 3 gusting 6 18.9
2014-Apr-16 00:00 330 2 gusting 5 18.3
2014-Apr-15 23:45 296 2 gusting 4 17.2
2014-Apr-15 23:30 307 2 gusting 5 16.7
2014-Apr-15 23:15 318 2 gusting 4 16.1
2014-Apr-15 23:00 309 2 gusting 4 14.4
2014-Apr-15 22:45 294 2 gusting 4 13.9
2014-Apr-15 22:30 307 2 gusting 4 13.3
2014-Apr-15 22:15 283 2 gusting 4 12.2
2014-Apr-15 22:00 294 2 gusting 3 12.2
2014-Apr-15 21:45 283 2 gusting 3 12.2
2014-Apr-15 21:30 285 2 gusting 3 11.7
2014-Apr-15 21:15 307 1 gusting 4 11.7
2014-Apr-15 21:00 285 1 gusting 2 11.1
2014-Apr-15 20:45 288 1 gusting 3 11.7
2014-Apr-15 20:30 300 1 gusting 3 11.7
2014-Apr-15 20:15 302 0 gusting 2 11.1
2014-Apr-15 20:00 294 0 gusting 1 10.0
2014-Apr-15 19:45 293 10.6
2014-Apr-15 19:30 294 10.6
2014-Apr-15 19:15 293 11.1
2014-Apr-15 18:59 293 11.1
2014-Apr-15 18:44 294 11.7
2014-Apr-15 18:29 294 12.2
2014-Apr-15 18:14 293 0 gusting 1 11.7
2014-Apr-15 17:59 293 11.7
2014-Apr-15 17:44 294 11.7
2014-Apr-15 17:29 294 0 gusting 1 11.7
2014-Apr-15 17:14 294 12.2
2014-Apr-15 16:59 291 12.2
2014-Apr-15 16:44 291 12.2
2014-Apr-15 16:29 290 12.2
2014-Apr-15 16:14 291 12.2
2014-Apr-15 15:59 291 0 gusting 1 12.8
2014-Apr-15 15:44 307 12.8
2014-Apr-15 15:29 297 12.2
2014-Apr-15 15:14 296 12.2
2014-Apr-15 14:59 296 12.2
2014-Apr-15 14:44 297 12.2
2014-Apr-15 14:29 296 12.2
2014-Apr-15 14:14 296 12.2
2014-Apr-15 13:59 226 0 gusting 1 12.2
2014-Apr-15 13:44 226 0 gusting 1 12.8
2014-Apr-15 13:29 226 0 gusting 1 12.8
2014-Apr-15 13:14 226 0 gusting 1 12.8
2014-Apr-15 12:59 225 13.3
2014-Apr-15 12:44 226 13.9
2014-Apr-15 12:29 221 14.4
2014-Apr-15 12:14 212 1 gusting 5 14.4